Time;durP1;ratioP1;P1;durP2;ratioP2;P2;SDS_P1;SDS_P2;PMS_P1;PMS_P2;Temp;Humidity;BMP_temperature;BMP_pressure;BME280_temperature;BME280_humidity;BME280_pressure;Samples;Min_cycle;Max_cycle;Signal;HPM_P1;HPM_P2
2022/06/08 00:01:38;;;;;;;14.77;7.63;;;;;;;15.21;79.10;100981.06;5038759;28;20115;-73
2022/06/08 00:04:06;;;;;;;12.38;7.07;;;;;;;15.22;79.47;100982.69;5038791;28;20094;-73
2022/06/08 00:06:32;;;;;;;12.82;7.25;;;;;;;15.20;79.81;100976.09;5056646;28;20107;-74
2022/06/08 00:08:58;;;;;;;11.55;7.03;;;;;;;15.12;80.22;100971.94;5056393;28;20104;-73
2022/06/08 00:11:24;;;;;;;10.98;6.75;;;;;;;15.19;80.49;100971.88;5056649;28;20515;-72
2022/06/08 00:13:50;;;;;;;13.55;7.15;;;;;;;15.08;81.10;100966.38;5038624;28;20028;-72
2022/06/08 00:16:16;;;;;;;11.50;6.70;;;;;;;15.03;82.14;100961.00;5056704;28;20029;-80
2022/06/08 00:18:43;;;;;;;10.48;7.20;;;;;;;14.98;82.88;100960.81;5057007;28;20033;-80
2022/06/08 00:21:09;;;;;;;14.00;7.20;;;;;;;14.95;82.75;100956.03;5038615;28;20055;-80
2022/06/08 00:23:35;;;;;;;12.48;7.43;;;;;;;14.92;83.99;100958.28;5038625;28;20055;-80
2022/06/08 00:26:01;;;;;;;12.05;7.28;;;;;;;14.99;84.07;100948.59;5056836;28;20484;-80
2022/06/08 00:28:26;;;;;;;10.27;7.05;;;;;;;14.94;84.56;100954.47;5056874;28;20369;-79
2022/06/08 00:30:52;;;;;;;12.98;7.68;;;;;;;14.96;85.34;100954.22;5038367;28;20171;-80
2022/06/08 00:33:17;;;;;;;12.13;7.47;;;;;;;14.88;86.19;100950.09;5038562;28;20031;-80
2022/06/08 00:35:42;;;;;;;9.32;6.95;;;;;;;14.86;86.24;100952.09;5056349;28;20035;-80
2022/06/08 00:38:08;;;;;;;13.65;7.10;;;;;;;14.81;86.47;100944.13;5056525;28;20021;-79
2022/06/08 00:41:12;;;;;;;13.48;7.57;;;;;;;14.86;87.24;100944.31;5056019;28;20016;-80
2022/06/08 00:43:38;;;;;;;12.32;7.50;;;;;;;14.76;87.61;100933.56;5055559;28;20033;-79
2022/06/08 00:46:05;;;;;;;12.43;7.38;;;;;;;14.75;88.16;100932.75;5038218;28;20035;-79
2022/06/08 00:48:36;;;;;;;10.30;6.78;;;;;;;14.73;88.45;100929.59;5056179;28;20056;-79
2022/06/08 00:51:02;;;;;;;11.55;7.22;;;;;;;14.72;88.98;100935.00;5038293;28;20029;-80
2022/06/08 00:53:36;;;;;;;15.50;7.28;;;;;;;14.66;89.85;100927.00;5038235;28;20021;-79
2022/06/08 00:56:05;;;;;;;11.77;7.40;;;;;;;14.68;90.46;100924.22;5056016;28;20032;-79
2022/06/08 00:58:33;;;;;;;12.75;7.35;;;;;;;14.61;90.87;100923.44;5038206;28;20021;-79
2022/06/08 01:00:58;;;;;;;17.80;7.45;;;;;;;14.72;91.25;100911.59;5055963;28;20027;-79
2022/06/08 01:03:26;;;;;;;12.07;7.18;;;;;;;14.67;91.43;100922.59;5055130;28;20033;-79
2022/06/08 01:06:03;;;;;;;10.85;7.05;;;;;;;14.75;90.96;100919.75;5055914;28;20025;-79
2022/06/08 01:08:38;;;;;;;10.90;7.00;;;;;;;14.76;91.42;100904.94;5038051;28;20036;-79
2022/06/08 01:11:07;;;;;;;11.32;6.53;;;;;;;14.70;91.45;100903.97;5055840;28;20039;-78
2022/06/08 01:13:35;;;;;;;14.10;7.18;;;;;;;14.64;92.03;100912.63;5038076;28;20384;-78
2022/06/08 01:16:06;;;;;;;12.07;7.25;;;;;;;14.60;92.89;100908.88;5055596;28;20021;-78
2022/06/08 01:18:32;;;;;;;11.50;7.10;;;;;;;14.71;92.42;100904.78;5037822;28;20171;-78
2022/06/08 01:21:19;;;;;;;13.38;7.53;;;;;;;14.57;93.43;100904.88;5037712;28;20028;-79
2022/06/08 01:23:50;;;;;;;12.35;7.20;;;;;;;14.65;94.45;100891.63;5055540;28;20025;-78
2022/06/08 01:26:36;;;;;;;14.07;7.57;;;;;;;14.70;93.42;100890.19;5055471;28;20460;-78
2022/06/08 01:29:25;;;;;;;14.90;7.53;;;;;;;14.73;93.47;100884.56;5037644;28;20025;-79
2022/06/08 01:32:11;;;;;;;13.27;7.43;;;;;;;14.55;95.08;100885.28;5037352;28;20040;-78
2022/06/08 01:35:12;;;;;;;14.95;7.55;;;;;;;14.62;95.08;100880.84;5055333;28;20107;-79
2022/06/08 01:37:52;;;;;;;14.80;7.22;;;;;;;14.52;95.37;100870.91;5000980;28;20127;-79
2022/06/08 01:40:27;;;;;;;13.32;7.70;;;;;;;14.60;95.98;100862.84;5037303;28;20021;-79
2022/06/08 01:42:58;;;;;;;13.75;8.20;;;;;;;14.66;95.56;100867.19;5055190;28;20476;-79
2022/06/08 01:45:33;;;;;;;13.25;7.95;;;;;;;14.72;95.56;100862.16;5055105;28;20032;-79
2022/06/08 01:48:20;;;;;;;17.58;8.00;;;;;;;14.74;95.43;100860.94;5037523;28;20032;-79
2022/06/08 01:51:11;;;;;;;15.68;8.02;;;;;;;14.62;95.33;100834.03;5037183;28;20534;-79
2022/06/08 01:53:56;;;;;;;19.13;8.40;;;;;;;14.67;95.17;100823.78;5054946;28;20025;-79
2022/06/08 01:56:47;;;;;;;16.00;8.70;;;;;;;14.78;95.28;100848.31;5054766;28;20016;-79
2022/06/08 01:59:19;;;;;;;13.35;8.13;;;;;;;14.73;95.26;100848.97;5037043;28;20041;-80
2022/06/08 02:02:22;;;;;;;17.00;9.15;;;;;;;14.65;96.28;100849.22;5054820;28;20512;-79
2022/06/08 02:05:03;;;;;;;18.60;9.47;;;;;;;14.52;97.51;100839.69;5054843;28;20064;-79
2022/06/08 02:07:34;;;;;;;16.67;9.48;;;;;;;14.52;97.50;100842.28;5036749;28;20294;-79
2022/06/08 02:10:18;;;;;;;18.98;10.30;;;;;;;14.50;97.67;100838.28;5036716;28;20025;-79
2022/06/08 02:12:50;;;;;;;19.58;10.00;;;;;;;14.47;98.18;100830.91;5054521;28;20503;-79
2022/06/08 02:15:25;;;;;;;21.33;10.57;;;;;;;14.48;98.32;100827.31;5053577;28;20063;-79
2022/06/08 02:17:57;;;;;;;24.27;11.90;;;;;;;14.50;98.18;100823.50;5054592;28;20053;-79
2022/06/08 02:20:39;;;;;;;24.55;12.27;;;;;;;14.38;98.62;100809.56;5054241;28;20023;-79
2022/06/08 02:23:19;;;;;;;23.27;11.90;;;;;;;14.30;99.71;100807.22;5036284;28;20120;-79
2022/06/08 02:26:11;;;;;;;26.52;12.68;;;;;;;14.23;99.77;100810.66;5054247;28;20104;-79
2022/06/08 02:28:41;;;;;;;28.27;12.98;;;;;;;14.27;100.00;100812.84;5054299;28;20032;-79
2022/06/08 02:31:20;;;;;;;28.08;14.70;;;;;;;14.29;100.00;100803.03;5054142;28;20049;-78
2022/06/08 02:36:46;;;;;;;25.25;14.13;;;;;;;14.15;100.00;100797.13;5054595;28;20460;-78
2022/06/08 02:39:14;;;;;;;32.20;15.65;;;;;;;14.05;100.00;100796.81;5054161;28;20104;-78
2022/06/08 02:41:42;;;;;;;32.58;15.48;;;;;;;14.08;100.00;100793.78;5054080;28;20064;-78
2022/06/08 02:44:12;;;;;;;34.35;16.45;;;;;;;14.02;100.00;100789.41;5054072;28;20357;-79
2022/06/08 02:46:56;;;;;;;26.23;15.43;;;;;;;14.10;100.00;100787.38;5054006;28;20024;-79
2022/06/08 02:49:21;;;;;;;31.08;16.50;;;;;;;13.98;100.00;100787.25;5054034;28;20107;-79
2022/06/08 02:51:50;;;;;;;32.50;16.75;;;;;;;14.03;100.00;100785.81;5053965;28;20048;-79
2022/06/08 02:54:19;;;;;;;34.05;16.02;;;;;;;14.02;100.00;100776.44;5053750;28;20210;-78
2022/06/08 02:56:54;;;;;;;34.03;16.35;;;;;;;14.00;100.00;100785.22;5053742;28;20054;-78
2022/06/08 02:59:21;;;;;;;32.65;16.45;;;;;;;13.98;100.00;100786.44;5053600;28;20036;-78
2022/06/08 03:01:53;;;;;;;31.67;17.15;;;;;;;13.87;100.00;100779.31;5053569;28;20100;-79
2022/06/08 03:04:24;;;;;;;36.58;17.33;;;;;;;13.86;100.00;100773.31;5035756;28;20033;-79
2022/06/08 03:06:53;;;;;;;37.53;17.17;;;;;;;13.87;100.00;100767.13;5035719;28;20021;-79
2022/06/08 03:09:19;;;;;;;34.05;17.05;;;;;;;13.88;100.00;100766.09;5035444;28;20021;-78
2022/06/08 03:11:50;;;;;;;31.95;16.67;;;;;;;13.96;100.00;100757.28;5053544;28;20051;-78
2022/06/08 03:14:17;;;;;;;31.75;16.95;;;;;;;13.94;100.00;100762.66;5035402;28;20021;-78
2022/06/08 03:16:55;;;;;;;29.38;16.48;;;;;;;13.91;100.00;100755.28;5053372;28;20035;-78
2022/06/08 03:19:21;;;;;;;35.08;18.40;;;;;;;13.82;100.00;100769.53;5053478;28;20388;-79
2022/06/08 03:21:46;;;;;;;34.92;17.77;;;;;;;13.80;100.00;100766.34;5035369;28;20021;-78
2022/06/08 03:24:12;;;;;;;31.30;17.48;;;;;;;13.82;100.00;100768.75;5035400;28;20023;-78
2022/06/08 03:26:45;;;;;;;35.78;17.58;;;;;;;13.84;100.00;100759.75;5052868;28;20035;-78
2022/06/08 03:29:10;;;;;;;;;;;;;;;13.85;100.00;100761.34;5035646;28;20029;-77
2022/06/08 03:31:36;;;;;;;32.63;16.63;;;;;;;13.88;100.00;100762.72;5053033;28;19923;-79
2022/06/08 03:34:01;;;;;;;31.25;16.98;;;;;;;13.90;100.00;100758.13;5053078;28;20041;-78
2022/06/08 03:36:26;;;;;;;33.13;16.83;;;;;;;13.82;100.00;100761.75;5052945;28;20021;-77
2022/06/08 03:38:52;;;;;;;31.58;17.10;;;;;;;13.86;100.00;100760.31;5035126;28;20056;-80
2022/06/08 03:41:18;;;;;;;31.90;17.23;;;;;;;13.87;100.00;100759.34;5053033;28;20025;-79
2022/06/08 03:43:43;;;;;;;33.53;16.88;;;;;;;13.89;100.00;100752.09;5053095;28;20025;-77
2022/06/08 03:46:10;;;;;;;34.10;17.35;;;;;;;13.96;100.00;100754.69;5053222;28;20032;-78
2022/06/08 03:48:36;;;;;;;28.45;16.55;;;;;;;13.87;100.00;100737.75;5035069;28;20060;-78
2022/06/08 03:51:01;;;;;;;36.38;17.15;;;;;;;13.99;100.00;100755.06;5034949;28;20033;-78
2022/06/08 03:53:32;;;;;;;31.05;16.90;;;;;;;13.94;100.00;100757.47;5053008;28;20045;-79
2022/06/08 03:56:02;;;;;;;29.85;16.80;;;;;;;14.10;100.00;100758.00;5035026;28;20053;-79
2022/06/08 03:58:27;;;;;;;30.80;17.13;;;;;;;14.18;100.00;100757.72;5052928;28;20108;-77
2022/06/08 04:00:53;;;;;;;28.05;15.98;;;;;;;14.18;100.00;100768.09;5052891;28;20101;-78
2022/06/08 04:03:19;;;;;;;31.27;16.40;;;;;;;14.22;100.00;100766.69;5052888;28;20060;-78
2022/06/08 04:05:44;;;;;;;28.73;16.05;;;;;;;14.31;100.00;100765.44;5034967;28;20433;-78
2022/06/08 04:08:10;;;;;;;28.83;16.17;;;;;;;14.40;99.03;100774.56;5053053;28;20025;-78
2022/06/08 04:10:36;;;;;;;28.77;16.98;;;;;;;14.42;98.61;100769.94;5052755;28;20488;-78
2022/06/08 04:13:01;;;;;;;26.45;16.08;;;;;;;14.42;98.91;100772.53;5035091;28;20024;-78
2022/06/08 04:15:42;;;;;;;30.50;16.38;;;;;;;14.48;98.47;100770.09;5052707;28;20044;-78
2022/06/08 04:18:22;;;;;;;27.38;16.52;;;;;;;14.35;99.14;100763.19;5035070;28;20120;-78
2022/06/08 04:20:50;;;;;;;28.88;16.42;;;;;;;14.43;98.65;100762.94;5034763;28;20025;-78
2022/06/08 04:23:19;;;;;;;28.50;16.02;;;;;;;14.41;99.20;100759.75;5052736;28;20391;-78
2022/06/08 04:25:45;;;;;;;26.80;15.68;;;;;;;14.38;98.38;100750.56;5052680;28;20060;-77
2022/06/08 04:28:13;;;;;;;28.08;15.77;;;;;;;14.36;98.92;100768.19;5052685;28;20024;-78
2022/06/08 04:30:39;;;;;;;27.48;15.63;;;;;;;14.37;98.68;100768.97;5034604;28;20052;-78
2022/06/08 04:33:04;;;;;;;25.15;15.38;;;;;;;14.40;98.66;100769.34;5052504;28;20376;-79
2022/06/08 04:35:29;;;;;;;24.52;14.52;;;;;;;14.37;98.41;100755.97;5034668;28;20476;-79
2022/06/08 04:37:55;;;;;;;29.05;14.93;;;;;;;14.49;98.34;100756.88;5052443;28;20021;-78
2022/06/08 04:40:22;;;;;;;27.73;15.32;;;;;;;14.58;97.97;100747.03;5037940;28;20028;-78
2022/06/08 04:42:48;;;;;;;24.38;14.68;;;;;;;14.81;96.49;100743.81;5056224;28;20060;-78
2022/06/08 04:45:13;;;;;;;25.92;14.80;;;;;;;14.91;95.33;100741.53;5038312;28;20078;-79
2022/06/08 04:47:38;;;;;;;26.70;14.68;;;;;;;15.10;93.93;100737.09;5056357;28;20021;-78
2022/06/08 04:50:09;;;;;;;25.05;14.85;;;;;;;15.21;93.09;100741.56;5041433;28;20096;-78
2022/06/08 04:52:41;;;;;;;24.33;14.48;;;;;;;15.17;92.44;100711.81;5040519;28;20468;-78
2022/06/08 04:55:08;;;;;;;23.98;14.35;;;;;;;15.14;93.15;100742.69;5040006;28;20025;-78
2022/06/08 04:57:36;;;;;;;23.30;13.70;;;;;;;15.42;92.35;100729.94;5056030;28;20025;-79
2022/06/08 05:00:09;;;;;;;21.50;13.05;;;;;;;15.50;90.84;100728.81;5056302;28;20522;-79
2022/06/08 05:02:49;;;;;;;23.90;14.18;;;;;;;15.49;91.79;100741.03;5056231;28;20046;-78
2022/06/08 05:05:19;;;;;;;20.85;13.27;;;;;;;15.33;91.33;100733.81;5055940;28;20032;-79
2022/06/08 05:07:45;;;;;;;23.35;13.35;;;;;;;15.25;91.73;100740.16;5037870;28;20025;-78
2022/06/08 05:10:11;;;;;;;20.95;13.43;;;;;;;15.27;92.13;100722.47;5055858;28;20396;-79
2022/06/08 05:12:36;;;;;;;22.83;13.73;;;;;;;15.44;90.94;100727.09;5037978;28;20038;-79
2022/06/08 05:15:06;;;;;;;25.98;13.07;;;;;;;15.55;90.37;100726.34;5037839;28;20033;-79
2022/06/08 05:17:32;;;;;;;23.50;13.40;;;;;;;15.43;90.46;100718.50;5037751;28;20032;-79
2022/06/08 05:19:57;;;;;;;21.70;13.25;;;;;;;15.52;90.30;100724.97;5037956;28;20032;-80
2022/06/08 05:22:22;;;;;;;26.77;13.35;;;;;;;15.48;90.51;100717.84;5037837;28;20017;-79
2022/06/08 05:24:49;;;;;;;19.55;12.55;;;;;;;15.66;90.26;100714.38;5037619;28;20082;-77
2022/06/08 05:27:14;;;;;;;21.95;12.00;;;;;;;15.53;89.39;100716.13;5037356;28;20032;-79
2022/06/08 05:29:40;;;;;;;20.58;12.07;;;;;;;15.62;89.31;100714.00;5037636;28;20049;-79
2022/06/08 05:32:06;;;;;;;20.33;11.88;;;;;;;15.82;88.66;100710.38;5055233;28;20028;-78
2022/06/08 05:34:31;;;;;;;19.35;11.52;;;;;;;16.09;87.46;100708.97;5055189;28;20103;-79
2022/06/08 05:36:57;;;;;;;19.80;11.85;;;;;;;16.10;86.78;100709.75;5055326;28;20456;-79
2022/06/08 05:39:22;;;;;;;18.00;11.68;;;;;;;16.29;85.79;100700.03;5055045;28;20476;-78
2022/06/08 05:41:47;;;;;;;20.70;11.73;;;;;;;16.36;85.09;100698.09;5055106;28;20045;-80
2022/06/08 05:44:13;;;;;;;19.23;11.75;;;;;;;16.12;86.78;100695.47;5036227;28;20043;-80
2022/06/08 05:46:38;;;;;;;19.02;11.95;;;;;;;16.14;86.21;100690.03;5037092;28;20108;-80
2022/06/08 05:49:04;;;;;;;17.88;11.43;;;;;;;16.05;87.05;100697.38;5036998;28;20465;-80
2022/06/08 05:51:30;;;;;;;23.02;11.90;;;;;;;16.08;87.14;100696.94;5036818;28;20079;-79
2022/06/08 05:53:56;;;;;;;18.30;11.23;;;;;;;16.13;86.61;100688.44;5037092;28;20098;-75
2022/06/08 05:56:21;;;;;;;18.60;11.57;;;;;;;16.31;86.06;100695.34;5036583;28;20476;-75
2022/06/08 05:58:46;;;;;;;19.40;11.52;;;;;;;16.29;85.36;100692.22;5036625;28;20021;-76
2022/06/08 06:01:12;;;;;;;17.10;10.65;;;;;;;15.88;87.55;100696.44;5054461;28;20025;-74
2022/06/08 06:03:37;;;;;;;17.58;11.02;;;;;;;16.05;87.09;100675.75;5054442;28;20055;-76
2022/06/08 06:06:03;;;;;;;20.15;11.25;;;;;;;16.79;85.17;100682.09;5036502;28;20029;-74
2022/06/08 06:08:28;;;;;;;13.70;9.93;;;;;;;17.13;82.28;100675.19;5054528;28;20112;-74
2022/06/08 06:10:54;;;;;;;17.30;10.38;;;;;;;17.71;79.14;100677.75;5054209;28;20029;-75
2022/06/08 06:13:19;;;;;;;17.20;9.98;;;;;;;18.48;75.31;100683.13;5054224;28;20031;-74
2022/06/08 06:15:46;;;;;;;14.15;10.18;;;;;;;17.68;77.20;100671.19;5054298;28;20025;-74
2022/06/08 06:18:11;;;;;;;17.20;9.18;;;;;;;16.85;80.54;100655.06;5054124;28;20388;-74
2022/06/08 06:20:39;;;;;;;16.00;9.18;;;;;;;16.38;83.56;100675.97;5036278;28;20024;-73
2022/06/08 06:23:05;;;;;;;15.18;8.73;;;;;;;16.29;84.25;100672.13;5036116;28;20079;-74
2022/06/08 06:25:30;;;;;;;16.65;9.38;;;;;;;16.39;84.61;100667.13;5054016;28;20391;-74
2022/06/08 06:27:56;;;;;;;13.90;8.20;;;;;;;16.47;84.01;100664.19;5053852;28;20369;-75
2022/06/08 06:30:21;;;;;;;13.45;7.60;;;;;;;16.64;82.86;100664.28;5053669;28;20056;-74
2022/06/08 06:32:48;;;;;;;14.45;8.20;;;;;;;16.88;82.65;100661.63;5053968;28;20025;-74
2022/06/08 06:35:21;;;;;;;14.30;8.00;;;;;;;17.17;81.59;100646.00;5053860;28;20498;-74
2022/06/08 06:37:47;;;;;;;14.27;7.57;;;;;;;17.30;80.71;100646.50;5036370;28;20114;-74
2022/06/08 06:40:13;;;;;;;10.57;6.97;;;;;;;18.06;77.58;100650.59;5053710;28;20021;-74
2022/06/08 06:42:38;;;;;;;11.43;6.80;;;;;;;18.18;76.37;100641.66;5053991;28;20040;-73
2022/06/08 06:45:04;;;;;;;11.27;7.05;;;;;;;18.99;75.15;100640.28;5053786;28;20392;-74
2022/06/08 06:47:30;;;;;;;10.90;7.03;;;;;;;18.23;74.36;100644.31;5035615;28;20031;-74
2022/06/08 06:49:56;;;;;;;11.75;6.90;;;;;;;18.47;74.13;100642.28;5053639;28;20035;-74
2022/06/08 06:52:22;;;;;;;10.25;6.68;;;;;;;18.32;74.67;100639.47;5035579;28;20104;-74
2022/06/08 06:54:47;;;;;;;11.30;6.38;;;;;;;18.65;74.63;100632.56;5035652;28;20461;-77
2022/06/08 06:57:14;;;;;;;11.32;6.13;;;;;;;18.62;73.16;100620.75;5054024;28;20025;-74
2022/06/08 06:59:40;;;;;;;11.50;5.90;;;;;;;18.32;74.67;100641.28;5054037;28;20025;-75
2022/06/08 07:02:14;;;;;;;12.05;6.13;;;;;;;18.69;73.69;100641.50;5052830;28;20031;-74
2022/06/08 07:04:42;;;;;;;9.32;5.20;;;;;;;19.30;71.71;100642.16;5035327;28;20425;-74
2022/06/08 07:07:08;;;;;;;10.10;5.15;;;;;;;19.48;70.81;100633.16;5035385;28;20028;-75
2022/06/08 07:09:34;;;;;;;6.22;4.43;;;;;;;19.68;68.61;100622.09;5035262;28;20025;-75
2022/06/08 07:11:59;;;;;;;11.90;4.70;;;;;;;19.52;69.44;100615.91;5035405;28;20104;-75
2022/06/08 07:14:24;;;;;;;7.30;4.30;;;;;;;19.03;71.12;100620.44;5034978;28;20476;-75
2022/06/08 07:16:51;;;;;;;6.47;4.13;;;;;;;19.50;69.91;100625.03;5052603;28;20029;-76
2022/06/08 07:19:18;;;;;;;8.65;4.20;;;;;;;19.58;69.93;100622.75;5034984;28;20431;-75
2022/06/08 07:21:44;;;;;;;7.20;3.97;;;;;;;19.78;69.80;100618.75;5053385;28;20037;-75
2022/06/08 07:24:16;;;;;;;7.78;3.80;;;;;;;20.06;67.57;100617.63;5053062;28;20029;-75
2022/06/08 07:26:41;;;;;;;5.88;3.80;;;;;;;20.53;66.21;100616.03;5035148;28;20029;-76
2022/06/08 07:29:07;;;;;;;8.45;3.88;;;;;;;20.59;65.85;100599.25;5052924;28;20356;-75
2022/06/08 07:31:36;;;;;;;9.40;4.10;;;;;;;20.27;66.40;100598.31;5035234;28;20497;-74
2022/06/08 07:34:02;;;;;;;9.45;4.30;;;;;;;20.44;67.45;100603.34;5035284;28;20079;-73
2022/06/08 07:36:27;;;;;;;6.60;4.10;;;;;;;20.58;65.68;100606.34;5052743;28;20056;-74
2022/06/08 07:38:53;;;;;;;7.60;4.57;;;;;;;20.50;66.49;100594.47;5052968;28;20029;-74
2022/06/08 07:41:18;;;;;;;10.25;5.30;;;;;;;19.96;67.58;100607.84;5052850;28;20025;-76
2022/06/08 07:43:43;;;;;;;8.95;5.00;;;;;;;19.50;70.22;100601.47;5034983;28;20021;-76
2022/06/08 07:46:09;;;;;;;9.32;5.70;;;;;;;19.06;72.00;100599.00;5053035;28;20021;-75
2022/06/08 07:51:19;;;;;;;13.75;5.18;;;;;;;19.02;72.82;100590.84;5052728;28;20036;-76
2022/06/08 07:53:47;;;;;;;8.23;5.18;;;;;;;19.95;70.61;100595.00;5053667;28;20025;-75
2022/06/08 07:56:13;;;;;;;9.30;5.78;;;;;;;20.31;68.21;100589.91;5052871;28;20095;-76
2022/06/08 07:58:38;;;;;;;7.38;5.38;;;;;;;20.15;70.24;100589.06;5052239;28;20021;-75
2022/06/08 08:01:06;;;;;;;11.90;5.25;;;;;;;20.89;67.14;100588.84;5053798;28;20099;-75
2022/06/08 08:03:31;;;;;;;9.00;5.20;;;;;;;20.82;67.23;100588.28;5035701;28;20540;-75
2022/06/08 08:05:57;;;;;;;9.35;5.40;;;;;;;20.88;66.41;100587.22;5051646;28;20053;-76
2022/06/08 08:08:22;;;;;;;16.15;5.47;;;;;;;20.74;66.85;100596.66;5050812;28;20056;-75
2022/06/08 08:10:48;;;;;;;11.20;5.05;;;;;;;19.50;70.89;100604.09;5033425;28;20025;-75
2022/06/08 08:13:14;;;;;;;11.35;5.30;;;;;;;19.41;71.95;100579.38;5033994;28;20033;-76
2022/06/08 08:15:41;;;;;;;10.05;5.47;;;;;;;19.15;73.19;100585.19;5038139;28;20059;-75
2022/06/08 08:18:07;;;;;;;9.38;5.20;;;;;;;19.22;73.89;100579.78;5056372;28;20536;-76
2022/06/08 08:20:34;;;;;;;7.63;5.03;;;;;;;19.67;72.74;100581.19;5038201;28;20025;-76
2022/06/08 08:22:59;;;;;;;11.07;5.22;;;;;;;19.68;71.94;100580.16;5056564;28;20056;-75
2022/06/08 08:25:25;;;;;;;9.23;5.30;;;;;;;19.86;71.39;100578.94;5057225;28;20113;-75
2022/06/08 08:27:52;;;;;;;9.82;5.00;;;;;;;19.12;73.04;100577.84;5038368;28;20059;-75
2022/06/08 08:30:22;;;;;;;9.52;4.63;;;;;;;19.24;73.10;100596.00;5056037;28;20412;-75
2022/06/08 08:32:48;;;;;;;7.25;4.13;;;;;;;19.59;71.66;100582.41;5038176;28;20036;-74
2022/06/08 08:35:16;;;;;;;7.18;4.10;;;;;;;20.18;70.57;100578.84;5056302;28;20036;-76
2022/06/08 08:37:42;;;;;;;7.10;3.97;;;;;;;19.80;69.06;100574.72;5037988;28;20500;-75
2022/06/08 08:40:18;;;;;;;7.70;3.92;;;;;;;19.91;70.09;100568.50;5055827;28;20036;-75
2022/06/08 08:42:43;;;;;;;6.80;3.20;;;;;;;19.96;68.94;100565.09;5038720;28;20032;-75
2022/06/08 08:45:13;;;;;;;9.23;3.92;;;;;;;19.77;70.01;100556.88;5055898;28;20024;-76
2022/06/08 08:47:38;;;;;;;10.00;3.85;;;;;;;19.68;70.86;100563.59;5056409;28;20029;-75
2022/06/08 08:50:19;;;;;;;4.47;3.40;;;;;;;19.65;70.54;100548.34;5038129;28;20029;-76
2022/06/08 08:52:58;;;;;;;8.85;3.40;;;;;;;19.82;70.35;100552.44;5056384;28;20309;-75
2022/06/08 08:56:01;;;;;;;9.70;3.40;;;;;;;20.16;68.04;100548.66;5056984;28;20052;-75
2022/06/08 08:58:30;;;;;;;6.78;3.55;;;;;;;20.14;69.00;100548.94;5029213;28;20037;-73
2022/06/08 09:01:16;;;;;;;7.93;3.97;;;;;;;19.62;70.02;100562.75;5055550;28;20013;-73
2022/06/08 09:03:45;;;;;;;13.57;4.00;;;;;;;19.33;72.01;100567.53;5055573;28;20028;-73
2022/06/08 09:06:22;;;;;;;13.70;4.25;;;;;;;19.66;71.59;100576.19;5037409;28;20017;-73
2022/06/08 09:09:00;;;;;;;8.82;4.35;;;;;;;19.30;72.24;100579.28;5055518;28;20473;-75
2022/06/08 09:11:55;;;;;;;12.50;4.50;;;;;;;19.45;71.97;100568.16;5038365;28;20033;-73
2022/06/08 09:14:24;;;;;;;11.57;5.05;;;;;;;19.86;71.38;100567.66;5033671;28;20381;-73
2022/06/08 09:17:08;;;;;;;8.75;4.40;;;;;;;20.33;70.08;100561.59;5037349;28;20031;-73
2022/06/08 09:19:48;;;;;;;15.50;4.68;;;;;;;20.41;70.34;100566.34;5055320;28;20073;-73
2022/06/08 09:22:16;;;;;;;7.97;4.35;;;;;;;20.85;68.43;100563.34;5037205;28;20020;-74
2022/06/08 09:24:47;;;;;;;6.47;4.43;;;;;;;21.19;67.70;100563.63;5054412;28;20511;-74
2022/06/08 09:27:22;;;;;;;12.68;4.75;;;;;;;20.87;67.70;100553.38;5036673;28;20060;-73
2022/06/08 09:30:12;;;;;;;13.02;5.63;;;;;;;20.36;68.90;100553.19;5036563;28;20072;-74
2022/06/08 09:32:37;;;;;;;9.85;4.97;;;;;;;20.93;67.11;100557.56;5054758;28;20021;-72
2022/06/08 09:35:15;;;;;;;9.87;5.10;;;;;;;21.35;65.93;100557.34;5036767;28;20501;-73
2022/06/08 09:37:41;;;;;;;9.30;4.22;;;;;;;21.56;65.52;100557.34;5036848;28;20322;-74
2022/06/08 09:40:36;;;;;;;9.57;4.80;;;;;;;20.47;67.98;100560.06;5036563;28;20025;-74
2022/06/08 09:43:42;;;;;;;10.18;4.55;;;;;;;21.06;66.50;100553.63;5054671;28;20040;-73
2022/06/08 09:52:26;;;;;;;12.77;4.60;;;;;;;20.60;63.41;100562.25;5054509;28;20090;-73
2022/06/08 09:55:16;;;;;;;12.48;5.13;;;;;;;20.19;65.43;100533.19;5054533;28;20029;-72
2022/06/08 09:57:46;;;;;;;15.55;4.82;;;;;;;20.81;65.32;100552.56;5054328;28;20033;-72
2022/06/08 10:00:39;;;;;;;10.82;5.13;;;;;;;20.39;65.41;100553.47;5036356;28;20477;-73
2022/06/08 10:03:44;;;;;;;15.02;6.47;;;;;;;19.74;67.55;100555.53;5036412;28;20021;-72
2022/06/08 10:06:18;;;;;;;9.63;5.78;;;;;;;19.86;66.65;100557.19;5000469;28;20029;-72
2022/06/08 10:09:10;;;;;;;12.85;6.32;;;;;;;19.77;66.66;100562.13;5053993;28;20494;-73
2022/06/08 10:11:55;;;;;;;17.30;7.93;;;;;;;19.31;66.76;100556.53;5054200;28;20029;-73
2022/06/08 10:14:53;;;;;;;10.82;7.35;;;;;;;19.17;68.13;100553.53;5036207;28;20020;-72
2022/06/08 10:17:45;;;;;;;15.18;8.55;;;;;;;18.90;68.65;100567.44;5053917;28;20020;-72
2022/06/08 10:20:20;;;;;;;12.63;8.73;;;;;;;18.89;70.02;100565.84;5054001;28;20021;-72
2022/06/08 10:22:56;;;;;;;15.57;8.27;;;;;;;19.04;69.00;100548.69;5053898;28;20032;-72
2022/06/08 10:25:40;;;;;;;15.35;7.60;;;;;;;19.25;69.88;100560.94;5036047;28;20028;-72
2022/06/08 10:28:15;;;;;;;10.57;6.22;;;;;;;19.30;67.92;100557.53;5053923;28;20051;-72
2022/06/08 10:30:54;;;;;;;13.25;5.35;;;;;;;19.27;67.43;100558.03;5053571;28;20041;-72
2022/06/08 10:33:29;;;;;;;10.60;4.55;;;;;;;19.23;67.31;100563.00;5053298;28;20398;-72
2022/06/08 10:35:57;;;;;;;8.13;3.60;;;;;;;19.49;67.11;100565.81;5052776;28;20104;-72
2022/06/08 10:38:28;;;;;;;9.38;3.45;;;;;;;19.37;67.14;100548.44;5035567;28;20048;-72
2022/06/08 10:44:07;;;;;;;6.75;2.17;;;;;;;18.86;66.04;100563.72;5054761;28;20557;-72
2022/06/08 10:47:16;;;;;;;6.65;2.20;;;;;;;19.04;65.46;100552.09;5035418;28;20047;-72
2022/06/08 10:50:17;;;;;;;9.18;2.10;;;;;;;19.12;65.90;100561.34;5016389;28;20171;-73
2022/06/08 10:52:47;;;;;;;8.40;2.30;;;;;;;18.92;66.09;100564.56;5054716;28;20028;-72
2022/06/08 10:55:18;;;;;;;5.47;1.60;;;;;;;18.98;63.98;100565.38;5054535;28;20036;-73
2022/06/08 10:58:03;;;;;;;7.53;1.70;;;;;;;18.80;63.59;100549.00;5036619;28;20037;-72
2022/06/08 11:01:00;;;;;;;10.18;1.70;;;;;;;18.89;62.32;100570.28;5036574;28;20031;-72
2022/06/08 11:03:36;;;;;;;5.03;1.65;;;;;;;18.79;63.46;100588.50;5035572;28;20062;-72
2022/06/08 11:06:08;;;;;;;5.22;1.50;;;;;;;18.73;64.80;100582.41;5035653;28;20017;-73
2022/06/08 11:08:54;;;;;;;5.82;1.63;;;;;;;18.49;65.91;100584.47;5053300;28;20107;-72
2022/06/08 11:11:44;;;;;;;7.53;1.80;;;;;;;18.59;66.86;100589.84;5035265;28;20117;-72
2022/06/08 11:14:30;;;;;;;10.55;2.00;;;;;;;18.63;67.27;100583.06;5035168;28;20020;-72
2022/06/08 11:17:09;;;;;;;6.35;1.75;;;;;;;18.48;69.27;100588.91;5035238;28;20033;-72
2022/06/08 11:19:35;;;;;;;7.53;1.80;;;;;;;18.37;70.89;100571.53;5053115;28;20013;-73
2022/06/08 11:22:10;;;;;;;5.63;1.80;;;;;;;18.26;71.55;100591.53;5035262;28;20083;-72
2022/06/08 11:24:46;;;;;;;5.65;1.75;;;;;;;17.94;73.14;100607.03;5035020;28;20039;-72
2022/06/08 11:27:11;;;;;;;6.53;2.08;;;;;;;17.73;75.36;100592.06;5052491;28;20508;-73
2022/06/08 11:29:55;;;;;;;7.15;1.90;;;;;;;17.73;77.63;100590.25;5034761;28;20040;-72
2022/06/08 11:32:42;;;;;;;8.05;1.90;;;;;;;17.68;78.63;100594.59;5034984;28;20064;-72
2022/06/08 11:35:29;;;;;;;7.75;1.90;;;;;;;17.64;79.74;100591.69;5052849;28;20044;-73
2022/06/08 11:38:13;;;;;;;10.10;1.88;;;;;;;17.29;83.42;100597.09;5034944;28;20128;-72
2022/06/08 11:40:38;;;;;;;7.03;1.60;;;;;;;16.80;80.94;100583.72;5052740;28;20021;-73
2022/06/08 11:43:06;;;;;;;6.93;1.60;;;;;;;16.94;83.07;100590.22;5034750;28;20036;-74
2022/06/08 11:45:40;;;;;;;10.48;2.25;;;;;;;16.74;85.46;100576.78;5034690;28;20083;-73
2022/06/08 11:48:14;;;;;;;10.30;2.20;;;;;;;16.54;84.08;100583.19;5036152;28;20388;-74
2022/06/08 11:50:42;;;;;;;9.23;2.00;;;;;;;16.38;85.11;100553.41;5056727;28;20025;-73